New Shoreham, Rhode Island
Current Conditions -  °F | °C
As of 9:15 AM on Thursday 18 Dec 2014 (Local Time) from KBID Reporting Station
Broken Clouds Broken Clouds  
Wind Chill: 30°   Ceiling: 3000
Heat Index: 39°   Visibility: 10mi
Dew Point: 27°   Wind: 20mph
Humidity: 61%   Direction: 290°WNW
Pressure: 29.85"   Gusts: 31mph
Location:  41.1768°N, 71.5785°W
Report Text: KBID 181415Z AUTO 29017G27KT 10SM BKN030 04/M03 A2985 RMK AO1
Loading
Personal Weather Stations






























Interactive Weather Map New forecast layout! Learn more

10-Day Weather Forecast

Advertisements
Track Severe Weather on mobile